createdAt,value
2022-09-01T00:00:02.696Z,0.00
2022-09-01T00:01:01.832Z,0.00
2022-09-01T00:02:01.984Z,0.00
2022-09-01T00:03:01.937Z,0.00
2022-09-01T00:04:01.824Z,0.00
2022-09-01T00:05:01.758Z,0.00
2022-09-01T00:06:01.741Z,0.00
2022-09-01T00:07:01.724Z,0.00
2022-09-01T00:08:01.705Z,0.00
2022-09-01T00:09:01.687Z,0.00
2022-09-01T00:10:01.670Z,0.00
2022-09-01T00:11:01.650Z,0.00
2022-09-01T00:12:01.630Z,0.00
2022-09-01T00:13:01.610Z,0.00
2022-09-01T00:14:01.598Z,0.00
2022-09-01T00:15:01.577Z,0.00
2022-09-01T00:16:01.635Z,0.00
2022-09-01T00:17:01.538Z,0.00
2022-09-01T00:18:01.522Z,0.00
2022-09-01T00:19:01.504Z,0.00
2022-09-01T00:20:01.487Z,0.00
2022-09-01T00:21:01.465Z,0.00
2022-09-01T00:22:01.450Z,0.00
2022-09-01T00:23:01.433Z,0.00
2022-09-01T00:24:01.413Z,0.00
2022-09-01T00:25:01.390Z,0.00
2022-09-01T00:26:01.375Z,0.00
2022-09-01T00:27:01.360Z,0.00
2022-09-01T00:28:01.337Z,0.00
2022-09-01T00:29:01.319Z,0.00
2022-09-01T00:30:01.300Z,0.00
2022-09-01T00:31:01.306Z,0.00
2022-09-01T00:32:01.268Z,0.00
2022-09-01T00:33:01.244Z,0.00
2022-09-01T00:34:01.233Z,0.00
2022-09-01T00:35:01.210Z,0.00
2022-09-01T00:36:01.190Z,0.00
2022-09-01T00:37:01.171Z,0.00
2022-09-01T00:38:01.196Z,0.00
2022-09-01T00:39:01.140Z,0.00
2022-09-01T00:40:01.118Z,0.00
2022-09-01T00:41:01.098Z,0.00
2022-09-01T00:42:01.080Z,0.00
2022-09-01T00:43:01.064Z,0.00
2022-09-01T00:44:01.045Z,0.00
2022-09-01T00:45:01.024Z,0.00
2022-09-01T00:46:01.047Z,0.00
2022-09-01T00:47:00.987Z,0.00
2022-09-01T00:48:00.972Z,0.00
2022-09-01T00:49:00.949Z,0.00
2022-09-01T00:50:00.933Z,0.00
2022-09-01T00:51:00.917Z,0.00
2022-09-01T00:52:00.899Z,0.00
2022-09-01T00:53:00.881Z,0.00
2022-09-01T00:54:00.859Z,0.00
2022-09-01T00:55:00.840Z,0.00
2022-09-01T00:56:00.823Z,0.00
2022-09-01T00:57:00.805Z,0.00
2022-09-01T00:58:00.785Z,0.00
2022-09-01T00:59:00.766Z,0.00
2022-09-01T01:00:00.751Z,0.00
2022-09-01T01:01:00.788Z,0.00
2022-09-01T01:02:00.712Z,0.00
2022-09-01T01:03:00.796Z,0.00
2022-09-01T01:04:00.676Z,0.00
2022-09-01T01:05:00.748Z,0.00
2022-09-01T01:06:00.638Z,0.00
2022-09-01T01:07:00.623Z,0.00
2022-09-01T01:08:00.603Z,0.00
2022-09-01T01:09:00.583Z,0.00
2022-09-01T01:10:00.564Z,0.00
2022-09-01T01:11:00.542Z,0.00
2022-09-01T01:12:00.526Z,0.00
2022-09-01T01:13:00.509Z,0.00
2022-09-01T01:14:00.493Z,0.00
2022-09-01T01:15:00.471Z,0.00
2022-09-01T01:16:00.453Z,0.00
2022-09-01T01:17:00.587Z,0.00
2022-09-01T01:18:00.416Z,0.00
2022-09-01T01:19:00.398Z,0.00
2022-09-01T01:20:00.378Z,0.00
2022-09-01T01:21:00.359Z,0.00
2022-09-01T01:22:00.343Z,0.00
2022-09-01T01:23:00.325Z,0.00
2022-09-01T01:24:00.309Z,0.00
2022-09-01T01:25:00.290Z,0.00
2022-09-01T01:26:00.266Z,0.00
2022-09-01T01:27:00.245Z,0.00
2022-09-01T01:28:00.231Z,0.00
2022-09-01T01:29:00.209Z,0.00
2022-09-01T01:30:00.191Z,0.00
2022-09-01T01:31:00.207Z,0.00
2022-09-01T01:32:00.160Z,0.00
2022-09-01T01:33:00.135Z,0.00
2022-09-01T01:34:00.119Z,0.00
2022-09-01T01:35:00.110Z,0.00
2022-09-01T01:36:00.095Z,0.00
2022-09-01T01:37:00.065Z,0.00
2022-09-01T01:38:00.043Z,0.00
2022-09-01T01:39:00.028Z,0.00
2022-09-01T01:40:00.005Z,0.00
2022-09-01T01:40:59.988Z,0.00
2022-09-01T01:41:59.968Z,0.00
2022-09-01T01:42:59.952Z,0.00
2022-09-01T01:43:59.931Z,0.00
2022-09-01T01:44:59.913Z,0.00
2022-09-01T01:45:59.929Z,0.00
2022-09-01T01:46:59.876Z,0.00
2022-09-01T01:47:59.856Z,0.00
2022-09-01T01:48:59.845Z,0.00
2022-09-01T01:49:59.820Z,0.00
2022-09-01T01:50:59.800Z,0.00
2022-09-01T01:51:59.783Z,0.00
2022-09-01T01:52:59.764Z,0.00
2022-09-01T01:53:59.741Z,0.00
2022-09-01T01:55:04.541Z,0.00
2022-09-01T01:55:59.708Z,0.00
2022-09-01T01:56:59.689Z,0.00
2022-09-01T01:57:59.668Z,0.00
2022-09-01T01:58:59.650Z,0.00
2022-09-01T01:59:59.631Z,0.00
2022-09-01T02:00:59.703Z,0.00
2022-09-01T02:01:59.632Z,0.00
2022-09-01T02:02:59.671Z,0.00
2022-09-01T02:04:00.203Z,0.00
2022-09-01T02:04:59.540Z,0.00
2022-09-01T02:05:59.520Z,0.00
2022-09-01T02:06:59.500Z,0.00
2022-09-01T02:07:59.482Z,0.00
2022-09-01T02:08:59.464Z,0.00
2022-09-01T02:09:59.445Z,0.00
2022-09-01T02:10:59.428Z,0.00
2022-09-01T02:11:59.405Z,0.00
2022-09-01T02:12:59.391Z,0.00
2022-09-01T02:13:59.368Z,0.00
2022-09-01T02:14:59.352Z,0.00
2022-09-01T02:15:59.330Z,0.00
2022-09-01T02:16:59.341Z,0.00
2022-09-01T02:17:59.291Z,0.00
2022-09-01T02:18:59.278Z,0.00
2022-09-01T02:19:59.257Z,0.00
2022-09-01T02:20:59.239Z,0.00
2022-09-01T02:21:59.218Z,0.00
2022-09-01T02:22:59.199Z,0.00
2022-09-01T02:23:59.182Z,0.00
2022-09-01T02:24:59.162Z,0.00
2022-09-01T02:26:15.693Z,0.00
2022-09-01T02:26:59.125Z,0.00
2022-09-01T02:27:59.105Z,0.00
2022-09-01T02:28:59.089Z,0.00
2022-09-01T02:29:59.069Z,0.00
2022-09-01T02:30:59.074Z,0.00
2022-09-01T02:31:59.030Z,0.00
2022-09-01T02:32:59.010Z,0.00
2022-09-01T02:33:58.993Z,0.00
2022-09-01T02:34:58.974Z,0.00
2022-09-01T02:35:58.954Z,0.00
2022-09-01T02:36:58.936Z,0.00
2022-09-01T02:37:58.914Z,0.00
2022-09-01T02:38:58.901Z,0.00
2022-09-01T02:39:58.880Z,0.00
2022-09-01T02:40:58.860Z,0.00
2022-09-01T02:41:58.838Z,0.00
2022-09-01T02:42:58.822Z,0.00
2022-09-01T02:43:58.803Z,0.00
2022-09-01T02:44:58.797Z,0.00
2022-09-01T02:45:58.816Z,0.00
2022-09-01T02:46:58.750Z,0.00
2022-09-01T02:47:58.725Z,0.00
2022-09-01T02:48:58.707Z,0.00
2022-09-01T02:49:58.684Z,0.00
2022-09-01T02:50:58.670Z,0.00
2022-09-01T02:51:58.650Z,0.00
2022-09-01T02:53:03.246Z,0.00
2022-09-01T02:53:58.621Z,0.00
2022-09-01T02:54:58.597Z,0.00
2022-09-01T02:55:58.575Z,0.00
2022-09-01T02:56:58.554Z,0.00
2022-09-01T02:57:58.538Z,0.00
2022-09-01T02:58:58.518Z,0.00
2022-09-01T02:59:58.498Z,0.00
2022-09-01T03:00:58.525Z,0.00
2022-09-01T03:01:58.457Z,0.00
2022-09-01T03:02:58.442Z,0.00
2022-09-01T03:03:58.421Z,0.00
2022-09-01T03:04:58.448Z,0.00
2022-09-01T03:05:58.384Z,0.00
2022-09-01T03:06:58.365Z,0.00
2022-09-01T03:07:58.345Z,0.00
2022-09-01T03:08:58.328Z,0.00
2022-09-01T03:09:58.307Z,0.00
2022-09-01T03:10:58.289Z,0.00
2022-09-01T03:11:58.269Z,0.00
2022-09-01T03:12:58.251Z,0.00
2022-09-01T03:13:58.234Z,0.00
2022-09-01T03:14:58.212Z,0.00
2022-09-01T03:15:58.192Z,0.00
2022-09-01T03:16:58.212Z,0.00
2022-09-01T03:17:58.153Z,0.00
2022-09-01T03:18:58.136Z,0.00
2022-09-01T03:19:58.116Z,0.00
2022-09-01T03:20:58.104Z,0.00
2022-09-01T03:21:58.077Z,0.00
2022-09-01T03:22:58.061Z,0.00
2022-09-01T03:23:58.042Z,0.00
2022-09-01T03:24:58.022Z,0.00
2022-09-01T03:25:57.999Z,0.00
2022-09-01T03:26:57.981Z,0.00
2022-09-01T03:27:57.965Z,0.00
2022-09-01T03:28:57.945Z,0.00
2022-09-01T03:29:57.922Z,0.00
2022-09-01T03:30:57.906Z,0.00
2022-09-01T03:31:57.939Z,0.00
2022-09-01T03:32:57.866Z,0.00
2022-09-01T03:33:57.845Z,0.00
2022-09-01T03:34:57.828Z,0.00
2022-09-01T03:35:57.809Z,0.00
2022-09-01T03:36:57.788Z,0.00
2022-09-01T03:37:57.767Z,0.00
2022-09-01T03:38:57.748Z,0.00
2022-09-01T03:39:58.128Z,0.00
2022-09-01T03:40:57.712Z,0.00
2022-09-01T03:41:57.692Z,0.00
2022-09-01T03:42:57.677Z,0.00
2022-09-01T03:43:57.655Z,0.00
2022-09-01T03:44:57.634Z,0.00
2022-09-01T03:45:57.653Z,0.00
2022-09-01T03:46:57.598Z,0.00
2022-09-01T03:47:57.578Z,0.00
2022-09-01T03:48:57.557Z,0.00
2022-09-01T03:49:57.539Z,0.00
2022-09-01T03:50:57.520Z,0.00
2022-09-01T03:51:57.533Z,0.00
2022-09-01T03:52:57.482Z,0.00
2022-09-01T03:53:57.548Z,0.00
2022-09-01T03:54:57.444Z,0.00
2022-09-01T03:55:57.422Z,0.00
2022-09-01T03:56:57.404Z,0.00
2022-09-01T03:57:57.386Z,0.00
2022-09-01T03:58:57.372Z,0.00
2022-09-01T03:59:57.348Z,0.00
2022-09-01T04:00:57.424Z,0.00
2022-09-01T04:01:57.342Z,0.00
2022-09-01T04:02:57.289Z,0.00
2022-09-01T04:03:57.269Z,0.00
2022-09-01T04:04:57.249Z,0.00
2022-09-01T04:05:57.229Z,0.00
2022-09-01T04:06:57.210Z,0.00
2022-09-01T04:07:57.191Z,0.00
2022-09-01T04:08:57.171Z,0.00
2022-09-01T04:09:57.150Z,0.00
2022-09-01T04:10:57.133Z,0.00
2022-09-01T04:11:57.114Z,0.00
2022-09-01T04:12:57.091Z,0.00
2022-09-01T04:13:57.072Z,0.00
2022-09-01T04:14:57.058Z,0.00
2022-09-01T04:15:57.241Z,0.00
2022-09-01T04:16:57.093Z,0.00
2022-09-01T04:17:56.994Z,0.00
2022-09-01T04:18:56.977Z,0.00
2022-09-01T04:19:56.958Z,0.00
2022-09-01T04:20:56.938Z,0.00
2022-09-01T04:21:56.917Z,0.00
2022-09-01T04:22:56.901Z,0.00
2022-09-01T04:23:56.880Z,4.00
2022-09-01T04:24:56.861Z,4.00
2022-09-01T04:25:56.848Z,0.00
2022-09-01T04:26:56.824Z,0.00
2022-09-01T04:27:56.803Z,0.00
2022-09-01T04:28:56.786Z,4.00
2022-09-01T04:29:57.804Z,4.00
2022-09-01T04:30:56.745Z,0.00
2022-09-01T04:31:56.744Z,4.00
2022-09-01T04:32:56.707Z,4.00
2022-09-01T04:33:56.686Z,8.00
2022-09-01T04:34:56.668Z,4.00
2022-09-01T04:35:56.656Z,8.00
2022-09-01T04:36:56.627Z,4.00
2022-09-01T04:37:56.606Z,8.00
2022-09-01T04:38:56.590Z,8.00
2022-09-01T04:39:57.420Z,8.00
2022-09-01T04:40:56.551Z,8.00
2022-09-01T04:41:56.529Z,8.00
2022-09-01T04:42:56.512Z,12.00
2022-09-01T04:43:56.494Z,12.00
2022-09-01T04:44:56.471Z,12.00
2022-09-01T04:45:56.509Z,12.00
2022-09-01T04:46:56.434Z,16.00
2022-09-01T04:47:56.414Z,16.00
2022-09-01T04:48:56.392Z,20.00
2022-09-01T04:49:56.373Z,20.00
2022-09-01T04:50:56.370Z,20.00
2022-09-01T04:51:56.338Z,20.00
2022-09-01T04:52:56.318Z,20.00
2022-09-01T04:53:56.293Z,24.00
2022-09-01T04:54:56.278Z,24.00
2022-09-01T04:55:56.254Z,24.00
2022-09-01T04:56:56.238Z,28.00
2022-09-01T04:57:56.218Z,32.00
2022-09-01T04:58:56.201Z,32.00
2022-09-01T04:59:56.177Z,32.00
2022-09-01T05:00:56.287Z,32.00
2022-09-01T05:01:56.179Z,32.00
2022-09-01T05:02:56.121Z,40.00
2022-09-01T05:03:56.103Z,40.00
2022-09-01T05:04:56.082Z,40.00
2022-09-01T05:05:56.059Z,40.00
2022-09-01T05:06:56.065Z,40.00
2022-09-01T05:07:56.022Z,48.00
2022-09-01T05:08:56.003Z,48.00
2022-09-01T05:10:00.566Z,48.00
2022-09-01T05:10:56.060Z,48.00
2022-09-01T05:11:55.945Z,52.00
2022-09-01T05:12:55.926Z,52.00
2022-09-01T05:13:55.905Z,52.00
2022-09-01T05:14:55.884Z,56.00
2022-09-01T05:15:55.938Z,56.00
2022-09-01T05:16:55.848Z,56.00
2022-09-01T05:17:55.825Z,60.00
2022-09-01T05:18:55.849Z,60.00
2022-09-01T05:19:55.786Z,60.00
2022-09-01T05:20:55.768Z,64.00
2022-09-01T05:21:55.746Z,64.00
2022-09-01T05:22:55.728Z,68.00
2022-09-01T05:23:55.710Z,68.00
2022-09-01T05:24:55.688Z,68.00
2022-09-01T05:25:55.666Z,68.00
2022-09-01T05:26:55.650Z,72.00
2022-09-01T05:27:55.631Z,72.00
2022-09-01T05:28:55.613Z,76.00
2022-09-01T05:29:55.589Z,76.00
2022-09-01T05:30:55.573Z,76.00
2022-09-01T05:31:55.638Z,76.00
2022-09-01T05:32:55.566Z,80.00
2022-09-01T05:33:55.511Z,80.00
2022-09-01T05:34:55.607Z,80.00
2022-09-01T05:35:55.572Z,80.00
2022-09-01T05:36:55.549Z,84.00
2022-09-01T05:37:55.533Z,84.00
2022-09-01T05:38:55.415Z,84.00
2022-09-01T05:39:55.394Z,88.00
2022-09-01T05:40:55.372Z,88.00
2022-09-01T05:41:55.354Z,88.00
2022-09-01T05:42:55.338Z,88.00
2022-09-01T05:43:59.966Z,92.00
2022-09-01T05:44:55.294Z,92.00
2022-09-01T05:46:06.199Z,92.00
2022-09-01T05:46:55.343Z,92.00
2022-09-01T05:47:55.236Z,96.00
2022-09-01T05:48:55.218Z,96.00
2022-09-01T05:49:55.196Z,100.00
2022-09-01T05:50:55.180Z,100.00
2022-09-01T05:51:55.156Z,100.00
2022-09-01T05:52:55.137Z,104.00
2022-09-01T05:53:55.118Z,104.00
2022-09-01T05:54:55.098Z,104.00
2022-09-01T05:55:55.081Z,104.00
2022-09-01T05:56:55.066Z,108.00
2022-09-01T05:57:55.042Z,108.00
2022-09-01T05:59:55.002Z,112.00
2022-09-01T06:00:54.980Z,112.00
2022-09-01T06:01:55.231Z,116.00
2022-09-01T06:02:55.073Z,116.00
2022-09-01T06:03:54.924Z,116.00
2022-09-01T06:04:54.900Z,116.00
2022-09-01T06:05:54.885Z,120.00
2022-09-01T06:07:06.368Z,120.00
2022-09-01T06:07:54.844Z,120.00
2022-09-01T06:08:54.823Z,124.00
2022-09-01T06:09:54.808Z,124.00
2022-09-01T06:10:54.786Z,124.00
2022-09-01T06:11:54.768Z,124.00
2022-09-01T06:12:54.745Z,124.00
2022-09-01T06:13:55.447Z,128.00
2022-09-01T06:14:54.717Z,132.00
2022-09-01T06:15:54.762Z,132.00
2022-09-01T06:16:54.666Z,132.00
2022-09-01T06:17:54.651Z,132.00
2022-09-01T06:18:54.630Z,132.00
2022-09-01T06:19:54.612Z,136.00
2022-09-01T06:20:54.589Z,136.00
2022-09-01T06:21:54.570Z,136.00
2022-09-01T06:22:54.551Z,136.00
2022-09-01T06:23:54.532Z,140.00
2022-09-01T06:24:58.097Z,140.00
2022-09-01T06:25:54.493Z,144.00
2022-09-01T06:26:54.473Z,140.00
2022-09-01T06:27:54.456Z,140.00
2022-09-01T06:28:54.434Z,144.00
2022-09-01T06:29:54.418Z,144.00
2022-09-01T06:30:54.397Z,148.00
2022-09-01T06:31:54.379Z,148.00
2022-09-01T06:32:54.356Z,148.00
2022-09-01T06:33:54.338Z,148.00
2022-09-01T06:34:54.323Z,152.00
2022-09-01T06:35:54.299Z,152.00
2022-09-01T06:36:54.279Z,152.00
2022-09-01T06:37:54.260Z,152.00
2022-09-01T06:38:54.244Z,156.00
2022-09-01T06:39:54.223Z,156.00
2022-09-01T06:40:54.785Z,156.00
2022-09-01T06:41:54.184Z,156.00
2022-09-01T06:42:54.166Z,156.00
2022-09-01T06:43:54.148Z,160.00
2022-09-01T06:44:54.121Z,160.00
2022-09-01T06:45:54.109Z,160.00
2022-09-01T06:46:54.149Z,164.00
2022-09-01T06:47:57.591Z,164.00
2022-09-01T06:48:54.046Z,164.00
2022-09-01T06:49:57.825Z,164.00
2022-09-01T06:51:53.992Z,168.00
2022-09-01T06:53:53.952Z,168.00
2022-09-01T06:54:53.933Z,168.00
2022-09-01T06:55:53.916Z,168.00
2022-09-01T06:56:53.896Z,172.00
2022-09-01T06:58:09.237Z,172.00
2022-09-01T06:58:53.853Z,176.00
2022-09-01T06:59:53.843Z,176.00
2022-09-01T07:00:53.820Z,176.00
2022-09-01T07:02:01.214Z,176.00
2022-09-01T07:02:53.840Z,180.00
2022-09-01T07:03:53.764Z,180.00
2022-09-01T07:04:53.753Z,180.00
2022-09-01T07:07:53.262Z,180.00
2022-09-01T07:08:04.742Z,184.00
2022-09-01T07:10:06.357Z,188.00
2022-09-01T07:12:25.081Z,192.00
2022-09-01T07:16:51.887Z,196.00
2022-09-01T07:17:45.969Z,196.00
2022-09-01T07:18:58.279Z,196.00
2022-09-01T07:19:49.114Z,196.00
2022-09-01T07:22:06.728Z,200.00
2022-09-01T07:24:07.948Z,200.00
2022-09-01T07:24:45.840Z,204.00
2022-09-01T07:26:01.599Z,204.00
2022-09-01T07:26:47.198Z,204.00
2022-09-01T07:27:45.779Z,204.00
2022-09-01T07:28:47.823Z,208.00
2022-09-01T07:29:45.741Z,208.00
2022-09-01T07:30:48.558Z,208.00
2022-09-01T07:31:49.387Z,208.00
2022-09-01T07:33:48.032Z,208.00
2022-09-01T07:34:46.429Z,212.00
2022-09-01T07:39:48.842Z,216.00
2022-09-01T07:39:49.876Z,216.00
2022-09-01T07:42:31.699Z,208.00
2022-09-01T07:43:45.480Z,220.00
2022-09-01T07:44:45.462Z,220.00
2022-09-01T07:45:58.033Z,220.00
2022-09-01T07:46:45.450Z,220.00
2022-09-01T07:47:53.225Z,220.00
2022-09-01T07:50:12.531Z,224.00
2022-09-01T07:51:45.359Z,228.00
2022-09-01T07:52:45.313Z,224.00
2022-09-01T07:53:45.297Z,228.00
2022-09-01T07:54:45.276Z,228.00
2022-09-01T07:55:45.256Z,228.00
2022-09-01T07:56:45.237Z,228.00
2022-09-01T07:57:45.218Z,228.00
2022-09-01T07:58:45.205Z,228.00
2022-09-01T07:59:45.184Z,232.00
2022-09-01T08:00:45.162Z,228.00
2022-09-01T08:01:45.234Z,236.00
2022-09-01T08:02:45.216Z,232.00
2022-09-01T08:03:45.112Z,236.00
2022-09-01T08:04:45.091Z,236.00
2022-09-01T08:05:45.072Z,236.00
2022-09-01T08:06:45.054Z,240.00
2022-09-01T08:07:52.459Z,240.00
2022-09-01T08:08:45.018Z,236.00
2022-09-01T08:09:44.997Z,240.00
2022-09-01T08:10:44.980Z,240.00
2022-09-01T08:12:01.814Z,240.00
2022-09-01T08:12:44.944Z,240.00
2022-09-01T08:13:44.923Z,240.00
2022-09-01T08:14:44.907Z,240.00
2022-09-01T08:16:52.408Z,244.00
2022-09-01T08:17:52.284Z,244.00
2022-09-01T08:18:48.500Z,244.00
2022-09-01T08:19:44.816Z,248.00
2022-09-01T08:20:44.931Z,248.00
2022-09-01T08:21:44.805Z,248.00
2022-09-01T08:22:44.761Z,252.00
2022-09-01T08:23:44.816Z,248.00
2022-09-01T08:24:44.750Z,252.00
2022-09-01T08:25:44.706Z,256.00
2022-09-01T08:26:44.689Z,256.00
2022-09-01T08:27:44.670Z,252.00
2022-09-01T08:28:46.199Z,256.00
2022-09-01T08:29:44.632Z,260.00
2022-09-01T08:30:49.183Z,260.00
2022-09-01T08:31:44.630Z,260.00
2022-09-01T08:32:44.580Z,260.00
2022-09-01T08:33:44.561Z,264.00
2022-09-01T08:34:44.543Z,264.00
2022-09-01T08:35:44.529Z,264.00
2022-09-01T08:36:44.509Z,268.00
2022-09-01T08:37:44.490Z,264.00
2022-09-01T08:38:44.473Z,272.00
2022-09-01T08:39:44.451Z,268.00
2022-09-01T08:40:44.516Z,268.00
2022-09-01T08:41:47.181Z,272.00
2022-09-01T08:42:44.399Z,272.00
2022-09-01T08:43:44.380Z,272.00
2022-09-01T08:44:44.367Z,272.00
2022-09-01T08:45:44.350Z,276.00
2022-09-01T08:46:44.415Z,276.00
2022-09-01T08:48:15.247Z,276.00
2022-09-01T08:49:44.647Z,288.00
2022-09-01T08:50:44.255Z,284.00
2022-09-01T08:51:44.236Z,280.00
2022-09-01T08:52:44.229Z,288.00
2022-09-01T08:53:44.201Z,288.00
2022-09-01T08:54:44.381Z,284.00
2022-09-01T08:55:44.166Z,288.00
2022-09-01T08:56:44.150Z,288.00
2022-09-01T08:57:44.137Z,292.00
2022-09-01T08:58:44.202Z,296.00
2022-09-01T08:59:44.096Z,292.00
2022-09-01T09:00:44.090Z,296.00
2022-09-01T09:01:44.073Z,292.00
2022-09-01T09:02:44.082Z,292.00
2022-09-01T09:03:44.044Z,304.00
2022-09-01T09:04:44.008Z,304.00
2022-09-01T09:05:43.989Z,312.00
2022-09-01T09:06:44.018Z,308.00
2022-09-01T09:07:43.959Z,320.00
2022-09-01T09:08:43.934Z,316.00
2022-09-01T09:09:49.356Z,320.00
2022-09-01T09:10:43.912Z,316.00
2022-09-01T09:11:43.885Z,332.00
2022-09-01T09:12:49.911Z,328.00
2022-09-01T09:13:43.855Z,336.00
2022-09-01T09:14:43.836Z,352.00
2022-09-01T09:15:43.897Z,524.00
2022-09-01T09:16:43.803Z,384.00
2022-09-01T09:17:43.776Z,408.00
2022-09-01T09:18:54.598Z,556.00
2022-09-01T09:19:43.753Z,688.00
2022-09-01T09:20:43.727Z,424.00
2022-09-01T09:21:43.716Z,464.00
2022-09-01T09:22:43.692Z,768.00
2022-09-01T09:23:44.555Z,664.00
2022-09-01T09:24:43.663Z,684.00
2022-09-01T09:25:43.641Z,524.00
2022-09-01T09:26:44.674Z,476.00
2022-09-01T09:27:43.607Z,552.00
2022-09-01T09:28:43.589Z,472.00
2022-09-01T09:29:45.485Z,488.00
2022-09-01T09:30:43.585Z,516.00
2022-09-01T09:31:43.544Z,464.00
2022-09-01T09:33:11.716Z,464.00
2022-09-01T09:33:51.689Z,460.00
2022-09-01T09:34:43.482Z,472.00
2022-09-01T09:35:43.464Z,484.00
2022-09-01T09:36:43.446Z,516.00
2022-09-01T09:37:43.437Z,416.00
2022-09-01T09:38:44.099Z,436.00
2022-09-01T09:39:43.406Z,792.00
2022-09-01T09:41:09.503Z,624.00
2022-09-01T09:41:43.417Z,708.00
2022-09-01T09:42:43.359Z,640.00
2022-09-01T09:43:43.780Z,700.00
2022-09-01T09:44:43.311Z,868.00
2022-09-01T09:45:43.410Z,816.00
2022-09-01T09:46:43.649Z,1176.00
2022-09-01T09:47:44.699Z,1312.00
2022-09-01T09:48:43.242Z,1268.00
2022-09-01T09:49:48.202Z,1700.00
2022-09-01T09:50:43.206Z,2440.00
2022-09-01T09:51:43.189Z,2512.00
2022-09-01T09:52:43.173Z,2328.00
2022-09-01T09:53:43.160Z,2220.00
2022-09-01T09:54:43.148Z,2188.00
2022-09-01T09:55:43.122Z,2044.00
2022-09-01T09:56:43.165Z,1816.00
2022-09-01T09:57:43.085Z,1820.00
2022-09-01T09:58:43.074Z,2052.00
2022-09-01T10:00:01.128Z,1952.00
2022-09-01T10:00:43.045Z,1724.00
2022-09-01T10:01:43.131Z,1816.00
2022-09-01T10:02:43.012Z,1892.00
2022-09-01T10:03:43.040Z,2336.00
2022-09-01T10:04:42.972Z,712.00
2022-09-01T10:05:43.416Z,1372.00
2022-09-01T10:06:42.941Z,588.00
2022-09-01T10:07:42.936Z,780.00
2022-09-01T10:08:42.919Z,700.00
2022-09-01T10:09:42.905Z,1860.00
2022-09-01T10:10:42.892Z,1636.00
2022-09-01T10:11:42.861Z,1948.00
2022-09-01T10:12:42.856Z,1860.00
2022-09-01T10:13:42.828Z,1348.00
2022-09-01T10:14:51.624Z,916.00
2022-09-01T10:15:42.797Z,788.00
2022-09-01T10:16:42.821Z,644.00
2022-09-01T10:17:43.612Z,1904.00
2022-09-01T10:18:42.766Z,1860.00
2022-09-01T10:19:42.771Z,724.00
2022-09-01T10:20:42.744Z,644.00
2022-09-01T10:21:42.773Z,1460.00
2022-09-01T10:22:42.688Z,1412.00
2022-09-01T10:23:42.677Z,1548.00
2022-09-01T10:24:45.865Z,1600.00
2022-09-01T10:25:42.640Z,1956.00
2022-09-01T10:26:42.631Z,1592.00
2022-09-01T10:27:42.610Z,1716.00
2022-09-01T10:28:49.611Z,1636.00
2022-09-01T10:29:48.967Z,760.00
2022-09-01T10:30:42.624Z,744.00
2022-09-01T10:31:42.551Z,1540.00
2022-09-01T10:32:50.806Z,1000.00
2022-09-01T10:33:42.518Z,648.00
2022-09-01T10:34:42.504Z,1528.00
2022-09-01T10:35:42.486Z,788.00
2022-09-01T10:36:42.701Z,632.00
2022-09-01T10:37:42.455Z,1384.00
2022-09-01T10:38:46.321Z,1604.00
2022-09-01T10:39:43.300Z,1568.00
2022-09-01T10:40:43.954Z,1500.00
2022-09-01T10:41:42.395Z,1788.00
2022-09-01T10:42:45.372Z,1456.00
2022-09-01T10:43:42.364Z,1544.00
2022-09-01T10:44:42.349Z,1372.00
2022-09-01T10:45:42.385Z,1308.00
2022-09-01T10:46:44.326Z,1416.00
2022-09-01T10:47:42.361Z,1608.00
2022-09-01T10:48:55.358Z,1604.00
2022-09-01T10:49:46.393Z,1688.00
2022-09-01T10:50:42.265Z,1380.00
2022-09-01T10:51:50.510Z,1484.00
2022-09-01T10:52:43.347Z,1504.00
2022-09-01T10:53:42.216Z,1800.00
2022-09-01T10:54:55.504Z,1572.00
2022-09-01T10:55:42.187Z,1464.00
2022-09-01T10:56:44.239Z,384.00
2022-09-01T10:57:42.752Z,480.00
2022-09-01T10:59:50.236Z,532.00
2022-09-01T11:01:10.283Z,1440.00
2022-09-01T11:01:48.848Z,1352.00
2022-09-01T11:02:46.615Z,1520.00
2022-09-01T11:03:49.091Z,1616.00
2022-09-01T11:04:42.163Z,1700.00
2022-09-01T11:05:42.043Z,1580.00
2022-09-01T11:06:42.340Z,1624.00
2022-09-01T11:08:42.010Z,1340.00
2022-09-01T11:09:41.988Z,1324.00
2022-09-01T11:10:41.960Z,892.00
2022-09-01T11:11:41.947Z,728.00
2022-09-01T11:12:42.196Z,500.00
2022-09-01T11:13:45.185Z,492.00
2022-09-01T11:14:41.909Z,468.00
2022-09-01T11:15:41.892Z,456.00
2022-09-01T11:16:49.443Z,424.00
2022-09-01T11:17:41.956Z,436.00
2022-09-01T11:18:41.846Z,456.00
2022-09-01T11:19:41.832Z,464.00
2022-09-01T11:20:41.816Z,460.00
2022-09-01T11:21:41.802Z,444.00
2022-09-01T11:22:41.787Z,444.00
2022-09-01T11:23:41.771Z,528.00
2022-09-01T11:24:42.383Z,808.00
2022-09-01T11:25:41.741Z,852.00
2022-09-01T11:26:41.733Z,752.00
2022-09-01T11:27:41.794Z,712.00
2022-09-01T11:28:41.911Z,868.00
2022-09-01T11:29:41.685Z,952.00
2022-09-01T11:30:41.670Z,868.00
2022-09-01T11:31:41.728Z,904.00
2022-09-01T11:32:46.278Z,680.00
2022-09-01T11:33:41.621Z,700.00
2022-09-01T11:34:41.625Z,708.00
2022-09-01T11:35:41.595Z,596.00
2022-09-01T11:36:41.576Z,600.00
2022-09-01T11:37:41.613Z,548.00
2022-09-01T11:38:41.548Z,632.00
2022-09-01T11:39:41.537Z,668.00
2022-09-01T11:40:41.592Z,476.00
2022-09-01T11:41:43.052Z,416.00
2022-09-01T11:42:41.486Z,552.00
2022-09-01T11:43:41.472Z,536.00
2022-09-01T11:44:42.523Z,532.00
2022-09-01T11:45:41.522Z,548.00
2022-09-01T11:46:41.426Z,548.00
2022-09-01T11:47:41.412Z,620.00
2022-09-01T11:48:41.395Z,520.00
2022-09-01T11:49:41.383Z,536.00
2022-09-01T11:50:41.369Z,532.00
2022-09-01T11:51:41.422Z,772.00
2022-09-01T11:52:41.336Z,832.00
2022-09-01T11:53:41.332Z,716.00
2022-09-01T11:54:41.305Z,800.00
2022-09-01T11:55:41.293Z,908.00
2022-09-01T11:56:41.273Z,888.00
2022-09-01T11:57:41.258Z,716.00
2022-09-01T11:58:41.244Z,544.00
2022-09-01T11:59:41.229Z,540.00
2022-09-01T12:00:41.217Z,508.00
2022-09-01T12:01:41.271Z,564.00
2022-09-01T12:02:41.259Z,576.00
2022-09-01T12:03:41.358Z,572.00
2022-09-01T12:04:41.186Z,580.00
2022-09-01T12:05:41.185Z,816.00
2022-09-01T12:06:41.179Z,884.00
2022-09-01T12:07:41.108Z,908.00
2022-09-01T12:08:41.096Z,908.00
2022-09-01T12:09:41.097Z,720.00
2022-09-01T12:10:41.066Z,796.00
2022-09-01T12:11:41.088Z,832.00
2022-09-01T12:12:41.109Z,744.00
2022-09-01T12:13:41.090Z,716.00
2022-09-01T12:15:02.358Z,664.00
2022-09-01T12:15:54.925Z,668.00
2022-09-01T12:16:41.007Z,644.00
2022-09-01T12:17:41.011Z,648.00
2022-09-01T12:18:40.997Z,552.00
2022-09-01T12:19:40.998Z,612.00
2022-09-01T12:20:41.047Z,796.00
2022-09-01T12:21:40.897Z,780.00
2022-09-01T12:22:40.944Z,844.00
2022-09-01T12:23:40.925Z,900.00
2022-09-01T12:24:40.848Z,896.00
2022-09-01T12:25:40.868Z,832.00
2022-09-01T12:26:40.869Z,712.00
2022-09-01T12:27:40.820Z,700.00
2022-09-01T12:28:40.872Z,684.00
2022-09-01T12:29:40.817Z,608.00
2022-09-01T12:30:40.833Z,784.00
2022-09-01T12:31:40.904Z,808.00
2022-09-01T12:32:40.728Z,660.00
2022-09-01T12:33:41.030Z,508.00
2022-09-01T12:34:40.726Z,552.00
2022-09-01T12:35:40.743Z,540.00
2022-09-01T12:36:40.706Z,464.00
2022-09-01T12:37:40.717Z,404.00
2022-09-01T12:38:40.656Z,924.00
2022-09-01T12:39:40.661Z,704.00
2022-09-01T12:40:40.699Z,608.00
2022-09-01T12:41:40.589Z,620.00
2022-09-01T12:42:44.739Z,668.00
2022-09-01T12:43:40.575Z,604.00
2022-09-01T12:44:40.566Z,332.00
2022-09-01T12:45:40.591Z,308.00
2022-09-01T12:46:40.515Z,320.00
2022-09-01T12:47:40.565Z,300.00
2022-09-01T12:48:40.480Z,288.00
2022-09-01T12:49:50.108Z,296.00
2022-09-01T12:50:40.457Z,432.00
2022-09-01T12:51:40.478Z,488.00
2022-09-01T12:52:40.501Z,564.00
2022-09-01T12:53:42.579Z,480.00
2022-09-01T12:54:40.399Z,552.00
2022-09-01T12:55:47.973Z,504.00
2022-09-01T12:56:40.356Z,524.00
2022-09-01T12:57:41.364Z,516.00
2022-09-01T12:58:40.326Z,532.00
2022-09-01T12:59:40.360Z,524.00
2022-09-01T13:00:40.335Z,608.00
2022-09-01T13:01:40.493Z,796.00
2022-09-01T13:02:40.416Z,832.00
2022-09-01T13:03:40.250Z,764.00
2022-09-01T13:04:40.233Z,900.00
2022-09-01T13:05:42.397Z,848.00
2022-09-01T13:06:40.204Z,984.00
2022-09-01T13:07:40.219Z,640.00
2022-09-01T13:08:40.177Z,524.00
2022-09-01T13:09:40.161Z,548.00